createdAt,value
2018-04-17T00:00:29.601Z,58.00
2018-04-17T00:02:55.559Z,58.37
2018-04-17T00:05:21.481Z,58.13
2018-04-17T00:07:47.377Z,58.60
2018-04-17T00:10:13.273Z,58.60
2018-04-17T00:12:39.235Z,59.00
2018-04-17T00:15:05.236Z,61.03
2018-04-17T00:17:31.119Z,58.10
2018-04-17T00:19:57.060Z,54.83
2018-04-17T00:22:22.946Z,60.20
2018-04-17T00:24:48.831Z,56.43
2018-04-17T00:27:14.928Z,57.57
2018-04-17T00:29:40.803Z,60.20
2018-04-17T00:32:06.680Z,57.37
2018-04-17T00:34:32.638Z,50.90
2018-04-17T00:36:58.513Z,51.67
2018-04-17T00:39:24.486Z,56.73
2018-04-17T00:41:50.596Z,59.63
2018-04-17T00:44:17.542Z,61.03
2018-04-17T00:46:43.429Z,60.03
2018-04-17T00:49:09.375Z,57.10
2018-04-17T00:51:35.817Z,59.23
2018-04-17T00:54:04.719Z,60.47
2018-04-17T00:56:30.655Z,61.67
2018-04-17T00:58:56.541Z,58.27
2018-04-17T01:01:22.419Z,60.10
2018-04-17T01:03:48.440Z,60.47
2018-04-17T01:06:14.312Z,63.57
2018-04-17T01:08:40.208Z,64.47
2018-04-17T01:11:06.293Z,62.33
2018-04-17T01:13:32.168Z,60.43
2018-04-17T01:15:58.146Z,62.23
2018-04-17T01:18:27.205Z,62.37
2018-04-17T01:20:53.109Z,55.43
2018-04-17T01:23:19.005Z,63.50
2018-04-17T01:25:44.942Z,62.07
2018-04-17T01:28:10.906Z,61.07
2018-04-17T01:30:36.780Z,59.03
2018-04-17T01:33:02.700Z,60.23
2018-04-17T01:35:28.588Z,62.53
2018-04-17T01:37:55.565Z,60.27
2018-04-17T01:40:21.565Z,62.17
2018-04-17T01:42:47.435Z,57.37
2018-04-17T01:45:13.327Z,61.40
2018-04-17T01:47:39.251Z,60.63
2018-04-17T01:50:05.152Z,60.80
2018-04-17T01:52:31.189Z,58.17
2018-04-17T01:54:57.133Z,62.63
2018-04-17T01:57:23.060Z,61.10
2018-04-17T01:59:48.977Z,59.40
2018-04-17T02:02:14.912Z,62.80
2018-04-17T02:04:43.722Z,57.93
2018-04-17T02:07:09.588Z,60.73
2018-04-17T02:09:35.688Z,55.87
2018-04-17T02:12:01.580Z,55.00
2018-04-17T02:14:27.503Z,59.53
2018-04-17T02:16:53.573Z,58.00
2018-04-17T02:19:19.453Z,59.27
2018-04-17T02:21:45.324Z,59.93
2018-04-17T02:24:11.249Z,59.03
2018-04-17T02:26:37.188Z,58.57
2018-04-17T02:29:03.160Z,59.10
2018-04-17T02:31:29.075Z,60.23
2018-04-17T02:33:55.024Z,59.80
2018-04-17T02:36:20.892Z,59.07
2018-04-17T02:38:46.942Z,63.73
2018-04-17T02:41:12.907Z,61.33
2018-04-17T02:43:38.777Z,59.23
2018-04-17T02:46:04.729Z,56.87
2018-04-17T02:48:30.611Z,55.93
2018-04-17T02:50:56.520Z,57.13
2018-04-17T02:53:22.523Z,60.90
2018-04-17T02:55:48.384Z,60.70
2018-04-17T02:58:14.279Z,54.67
2018-04-17T03:00:40.203Z,53.40
2018-04-17T03:03:06.096Z,45.37
2018-04-17T03:05:32.076Z,49.27
2018-04-17T03:07:57.971Z,52.57
2018-04-17T03:10:23.847Z,52.00
2018-04-17T03:12:49.740Z,49.73
2018-04-17T03:15:15.669Z,45.43
2018-04-17T03:17:41.629Z,49.83
2018-04-17T03:20:07.529Z,49.50
2018-04-17T03:22:33.443Z,45.03
2018-04-17T03:24:59.356Z,49.07
2018-04-17T03:27:25.257Z,46.43
2018-04-17T03:29:51.288Z,42.23
2018-04-17T03:32:17.172Z,39.30
2018-04-17T03:34:43.080Z,42.20
2018-04-17T03:37:09.023Z,47.97
2018-04-17T03:39:34.897Z,51.20
2018-04-17T03:42:00.880Z,50.37
2018-04-17T03:44:26.799Z,46.13
2018-04-17T03:46:52.690Z,50.23
2018-04-17T03:49:18.565Z,49.77
2018-04-17T03:51:45.403Z,49.17
2018-04-17T03:54:11.400Z,48.73
2018-04-17T03:56:37.283Z,49.43
2018-04-17T03:59:03.227Z,45.03
2018-04-17T04:01:29.138Z,34.70
2018-04-17T04:03:55.105Z,49.20
2018-04-17T04:06:21.193Z,49.57
2018-04-17T04:08:47.071Z,48.03
2018-04-17T04:11:12.952Z,46.40
2018-04-17T04:13:39.042Z,46.87
2018-04-17T04:16:05.040Z,45.50
2018-04-17T04:21:47.096Z,47.77
2018-04-17T04:24:25.351Z,45.30
2018-04-17T04:26:51.324Z,44.80
2018-04-17T04:29:17.285Z,42.00
2018-04-17T04:31:43.216Z,39.83
2018-04-17T04:34:09.092Z,41.27
2018-04-17T04:36:34.996Z,41.30
2018-04-17T04:39:00.998Z,38.73
2018-04-17T04:41:27.005Z,44.63
2018-04-17T04:43:53.733Z,46.33
2018-04-17T04:46:19.659Z,38.63
2018-04-17T04:48:45.556Z,41.50
2018-04-17T04:51:11.526Z,45.20
2018-04-17T04:53:37.557Z,44.07
2018-04-17T04:56:03.515Z,38.80
2018-04-17T04:58:29.403Z,43.67
2018-04-17T05:00:55.332Z,40.87
2018-04-17T05:03:21.256Z,44.77
2018-04-17T05:05:47.219Z,42.37
2018-04-17T05:08:13.135Z,40.20
2018-04-17T05:10:38.997Z,43.97
2018-04-17T05:13:04.897Z,40.40
2018-04-17T05:15:30.872Z,39.43
2018-04-17T05:17:56.830Z,38.97
2018-04-17T05:20:22.699Z,41.37
2018-04-17T05:22:48.735Z,46.67
2018-04-17T05:25:14.597Z,48.80
2018-04-17T05:27:40.552Z,47.63
2018-04-17T05:30:06.560Z,53.10
2018-04-17T05:32:32.411Z,56.83
2018-04-17T05:34:58.263Z,56.97
2018-04-17T05:37:24.187Z,60.30
2018-04-17T05:39:51.151Z,64.70
2018-04-17T05:42:17.176Z,62.10
2018-04-17T05:44:43.110Z,67.47
2018-04-17T05:47:08.987Z,72.50
2018-04-17T05:49:34.942Z,71.73
2018-04-17T05:52:00.903Z,69.30
2018-04-17T05:54:26.895Z,70.03
2018-04-17T05:56:52.875Z,69.03
2018-04-17T05:59:19.109Z,64.73
2018-04-17T06:01:45.876Z,62.47
2018-04-17T06:04:11.836Z,58.77
2018-04-17T06:06:37.840Z,62.53
2018-04-17T06:09:03.760Z,64.10
2018-04-17T06:11:29.638Z,61.67
2018-04-17T06:13:55.559Z,63.83
2018-04-17T06:16:21.498Z,63.20
2018-04-17T06:18:47.546Z,62.90
2018-04-17T06:21:13.458Z,59.63
2018-04-17T06:23:39.327Z,58.00
2018-04-17T06:26:05.249Z,59.57
2018-04-17T06:28:31.196Z,62.13
2018-04-17T06:30:57.222Z,57.77
2018-04-17T06:33:23.108Z,52.47
2018-04-17T06:35:49.019Z,57.50
2018-04-17T06:38:15.948Z,56.23
2018-04-17T06:40:41.881Z,60.50
2018-04-17T06:43:07.980Z,61.40
2018-04-17T06:45:34.012Z,58.50
2018-04-17T06:47:59.876Z,58.33
2018-04-17T06:50:25.934Z,61.23
2018-04-17T06:52:51.924Z,56.87
2018-04-17T06:55:17.886Z,59.23
2018-04-17T06:57:44.927Z,59.47
2018-04-17T07:00:10.832Z,56.70
2018-04-17T07:02:36.712Z,58.17
2018-04-17T07:05:03.585Z,56.60
2018-04-17T07:07:29.578Z,57.73
2018-04-17T07:09:55.443Z,58.00
2018-04-17T07:12:21.463Z,61.10
2018-04-17T07:14:47.339Z,59.87
2018-04-17T07:17:13.288Z,58.07
2018-04-17T07:19:48.716Z,62.23
2018-04-17T07:22:14.588Z,55.27
2018-04-17T07:24:42.578Z,55.83
2018-04-17T07:27:09.067Z,58.60
2018-04-17T07:29:34.991Z,55.90
2018-04-17T07:32:04.393Z,58.03
2018-04-17T07:34:30.489Z,49.97
2018-04-17T07:36:56.364Z,48.73
2018-04-17T07:39:22.255Z,50.03
2018-04-17T07:41:48.233Z,49.87
2018-04-17T07:44:14.287Z,47.43
2018-04-17T07:46:40.179Z,44.77
2018-04-17T07:49:06.132Z,44.40
2018-04-17T07:51:33.122Z,44.70
2018-04-17T07:54:01.956Z,41.40
2018-04-17T07:56:33.680Z,38.67
2018-04-17T07:58:59.593Z,41.60
2018-04-17T08:01:25.473Z,39.73
2018-04-17T08:03:51.397Z,35.47
2018-04-17T08:06:19.633Z,31.57
2018-04-17T08:08:48.909Z,29.10
2018-04-17T08:11:15.294Z,26.67
2018-04-17T08:13:41.247Z,27.80
2018-04-17T08:16:07.191Z,25.77
2018-04-17T08:18:33.769Z,21.43
2018-04-17T08:20:59.872Z,21.90
2018-04-17T08:23:26.086Z,21.03
2018-04-17T08:25:52.175Z,15.87
2018-04-17T08:28:18.056Z,15.90
2018-04-17T08:30:45.068Z,14.83
2018-04-17T08:33:11.068Z,14.33
2018-04-17T08:35:36.936Z,16.97
2018-04-17T08:38:02.829Z,18.00
2018-04-17T08:40:28.918Z,17.40
2018-04-17T08:42:55.128Z,17.67
2018-04-17T08:45:21.156Z,11.97
2018-04-17T08:47:47.577Z,10.63
2018-04-17T08:50:13.466Z,10.73
2018-04-17T08:52:39.331Z,10.93
2018-04-17T08:55:05.380Z,11.77
2018-04-17T08:57:31.412Z,9.93
2018-04-17T08:59:57.564Z,8.87
2018-04-17T09:02:24.556Z,7.87
2018-04-17T09:04:51.521Z,7.77
2018-04-17T09:07:17.824Z,8.03
2018-04-17T09:09:43.831Z,8.70
2018-04-17T09:12:09.713Z,8.30
2018-04-17T09:14:35.608Z,7.67
2018-04-17T09:17:01.571Z,6.63
2018-04-17T09:19:27.984Z,7.03
2018-04-17T09:21:53.972Z,6.70
2018-04-17T09:24:19.868Z,6.30
2018-04-17T09:26:45.808Z,6.03
2018-04-17T09:29:11.696Z,6.37
2018-04-17T09:31:38.120Z,6.10
2018-04-17T09:34:04.156Z,6.07
2018-04-17T09:36:30.032Z,5.70
2018-04-17T09:38:56.354Z,5.30
2018-04-17T09:41:22.268Z,5.83
2018-04-17T09:43:48.192Z,5.90
2018-04-17T09:46:14.188Z,5.90
2018-04-17T09:48:41.300Z,5.77
2018-04-17T09:51:07.180Z,6.47
2018-04-17T09:53:33.115Z,5.93
2018-04-17T09:56:02.823Z,5.47
2018-04-17T09:58:28.863Z,5.10
2018-04-17T10:00:57.671Z,4.80
2018-04-17T10:03:23.552Z,4.70
2018-04-17T10:05:49.453Z,5.70
2018-04-17T10:08:15.418Z,5.73
2018-04-17T10:10:41.436Z,5.27
2018-04-17T10:13:07.305Z,5.50
2018-04-17T10:15:33.212Z,5.27
2018-04-17T10:17:59.080Z,5.72
2018-04-17T10:20:27.155Z,5.37
2018-04-17T10:22:53.160Z,5.30
2018-04-17T10:25:19.042Z,6.13
2018-04-17T10:27:44.924Z,5.13
2018-04-17T10:30:10.858Z,5.30
2018-04-17T10:32:36.723Z,5.10
2018-04-17T10:35:02.650Z,5.10
2018-04-17T10:37:28.647Z,5.80
2018-04-17T10:39:54.530Z,5.27
2018-04-17T10:42:20.415Z,5.80
2018-04-17T10:44:46.348Z,5.37
2018-04-17T10:47:12.208Z,5.70
2018-04-17T10:49:39.191Z,5.37
2018-04-17T10:52:05.120Z,4.60
2018-04-17T10:54:30.991Z,4.80
2018-04-17T10:56:56.889Z,4.60
2018-04-17T10:59:22.804Z,5.07
2018-04-17T11:01:48.753Z,4.83
2018-04-17T11:04:15.053Z,4.70
2018-04-17T11:06:41.038Z,4.73
2018-04-17T11:09:06.916Z,4.53
2018-04-17T11:11:32.781Z,5.10
2018-04-17T11:13:58.710Z,5.60
2018-04-17T11:16:24.567Z,4.33
2018-04-17T11:18:51.196Z,5.33
2018-04-17T11:21:17.103Z,5.83
2018-04-17T11:23:43.085Z,5.30
2018-04-17T11:26:09.573Z,4.97
2018-04-17T11:28:35.504Z,5.03
2018-04-17T11:31:01.405Z,4.80
2018-04-17T11:33:27.296Z,4.60
2018-04-17T11:35:53.328Z,4.30
2018-04-17T11:38:19.205Z,4.47
2018-04-17T11:40:45.070Z,4.93
2018-04-17T11:43:10.996Z,4.30
2018-04-17T11:45:36.872Z,4.93
2018-04-17T11:48:02.832Z,4.50
2018-04-17T11:50:28.751Z,5.10
2018-04-17T11:52:54.661Z,5.27
2018-04-17T11:55:20.533Z,5.07
2018-04-17T11:57:46.458Z,4.57
2018-04-17T12:00:12.508Z,4.87
2018-04-17T12:02:38.360Z,5.23
2018-04-17T12:05:04.416Z,4.70
2018-04-17T12:07:30.305Z,5.43
2018-04-17T12:09:56.189Z,4.83
2018-04-17T12:12:22.183Z,6.03
2018-04-17T12:14:48.070Z,5.60
2018-04-17T12:17:13.988Z,5.10
2018-04-17T12:19:39.896Z,4.93
2018-04-17T12:22:05.759Z,5.70
2018-04-17T12:24:31.727Z,5.70
2018-04-17T12:26:57.640Z,4.97
2018-04-17T12:29:23.503Z,5.83
2018-04-17T12:31:49.378Z,5.07
2018-04-17T12:34:15.303Z,5.47
2018-04-17T12:36:41.272Z,4.97
2018-04-17T12:39:07.136Z,4.70
2018-04-17T12:41:33.451Z,4.17
2018-04-17T12:43:59.328Z,5.00
2018-04-17T12:46:25.220Z,4.50
2018-04-17T12:48:51.208Z,4.83
2018-04-17T12:51:17.072Z,4.63
2018-04-17T12:53:42.951Z,4.60
2018-04-17T12:56:09.033Z,4.60
2018-04-17T12:58:34.901Z,4.83
2018-04-17T13:01:00.863Z,3.90
2018-04-17T13:03:26.813Z,4.07
2018-04-17T13:05:52.676Z,5.00
2018-04-17T13:08:18.561Z,4.50
2018-04-17T13:10:44.485Z,4.33
2018-04-17T13:13:10.443Z,4.33
2018-04-17T13:15:36.329Z,4.37
2018-04-17T13:18:02.244Z,3.90
2018-04-17T13:20:28.110Z,3.97
2018-04-17T13:22:54.004Z,3.83
2018-04-17T13:25:20.342Z,3.57
2018-04-17T13:27:46.210Z,4.50
2018-04-17T13:30:12.196Z,3.90
2018-04-17T13:32:38.103Z,3.80
2018-04-17T13:35:03.959Z,4.40
2018-04-17T13:37:29.951Z,4.00
2018-04-17T13:39:55.862Z,3.97
2018-04-17T13:42:21.791Z,4.47
2018-04-17T13:44:47.619Z,4.77
2018-04-17T13:47:13.552Z,4.27
2018-04-17T13:49:39.507Z,3.90
2018-04-17T13:52:05.376Z,4.27
2018-04-17T13:54:44.968Z,3.90
2018-04-17T13:57:10.861Z,4.23
2018-04-17T13:59:36.736Z,3.87
2018-04-17T14:02:02.761Z,3.87
2018-04-17T14:04:28.676Z,5.37
2018-04-17T14:06:54.605Z,4.80
2018-04-17T14:09:20.530Z,4.40
2018-04-17T14:11:46.846Z,4.47
2018-04-17T14:14:12.892Z,4.20
2018-04-17T14:16:38.827Z,3.90
2018-04-17T14:19:04.710Z,4.53
2018-04-17T14:21:30.607Z,3.93
2018-04-17T14:23:56.560Z,4.10
2018-04-17T14:26:22.539Z,4.13
2018-04-17T14:28:48.424Z,3.70
2018-04-17T14:31:14.340Z,4.03
2018-04-17T14:33:40.528Z,3.47
2018-04-17T14:36:06.408Z,3.77
2018-04-17T14:38:32.412Z,4.10
2018-04-17T14:40:58.290Z,3.60
2018-04-17T14:43:24.228Z,3.70
2018-04-17T14:45:50.185Z,3.33
2018-04-17T14:48:16.056Z,3.60
2018-04-17T14:50:42.044Z,3.77
2018-04-17T14:53:07.984Z,3.60
2018-04-17T14:55:33.860Z,3.20
2018-04-17T14:57:59.760Z,4.33
2018-04-17T15:00:25.696Z,3.37
2018-04-17T15:02:51.706Z,3.60
2018-04-17T15:05:17.588Z,4.00
2018-04-17T15:07:43.500Z,4.20
2018-04-17T15:10:09.381Z,3.40
2018-04-17T15:12:35.255Z,3.67
2018-04-17T15:15:01.280Z,3.50
2018-04-17T15:17:27.132Z,3.30
2018-04-17T15:19:52.987Z,3.83
2018-04-17T15:22:19.200Z,3.57
2018-04-17T15:24:45.084Z,3.47
2018-04-17T15:27:11.057Z,3.13
2018-04-17T15:29:37.209Z,3.00
2018-04-17T15:32:03.088Z,3.20
2018-04-17T15:34:29.056Z,3.07
2018-04-17T15:36:54.985Z,3.13
2018-04-17T15:39:20.919Z,4.20
2018-04-17T15:41:46.799Z,3.33
2018-04-17T15:44:12.723Z,3.20
2018-04-17T15:46:38.601Z,3.03
2018-04-17T15:49:04.474Z,3.83
2018-04-17T15:51:30.504Z,3.50
2018-04-17T15:53:56.402Z,9.27
2018-04-17T15:56:22.294Z,5.63
2018-04-17T15:58:48.229Z,3.53
2018-04-17T16:01:14.115Z,3.93
2018-04-17T16:03:40.915Z,3.50
2018-04-17T16:06:06.840Z,3.20
2018-04-17T16:08:32.704Z,3.43
2018-04-17T16:10:58.600Z,3.23
2018-04-17T16:13:24.794Z,3.60
2018-04-17T16:15:50.760Z,3.20
2018-04-17T16:18:16.624Z,3.33
2018-04-17T16:20:42.537Z,3.20
2018-04-17T16:23:08.409Z,3.30
2018-04-17T16:25:34.309Z,3.60
2018-04-17T16:28:00.324Z,3.00
2018-04-17T16:30:26.237Z,3.13
2018-04-17T16:32:52.123Z,3.33
2018-04-17T16:35:18.036Z,3.30
2018-04-17T16:37:43.977Z,3.37
2018-04-17T16:40:09.952Z,3.57
2018-04-17T16:42:35.896Z,3.60
2018-04-17T16:45:01.805Z,3.97
2018-04-17T16:47:27.736Z,2.60
2018-04-17T16:49:53.664Z,3.47
2018-04-17T16:52:19.653Z,3.10
2018-04-17T16:54:45.615Z,3.50
2018-04-17T16:57:11.870Z,3.27
2018-04-17T16:59:37.770Z,3.17
2018-04-17T17:02:03.667Z,2.87
2018-04-17T17:04:29.677Z,2.90
2018-04-17T17:06:55.552Z,3.47
2018-04-17T17:09:21.419Z,3.13
2018-04-17T17:11:47.361Z,3.20
2018-04-17T17:14:13.231Z,3.00
2018-04-17T17:16:39.183Z,3.63
2018-04-17T17:19:05.117Z,3.33
2018-04-17T17:21:30.991Z,2.80
2018-04-17T17:23:56.869Z,3.00
2018-04-17T17:26:22.803Z,3.60
2018-04-17T17:28:48.746Z,3.03
2018-04-17T17:31:14.604Z,2.83
2018-04-17T17:33:40.524Z,3.87
2018-04-17T17:36:06.410Z,3.30
2018-04-17T17:38:32.304Z,3.50
2018-04-17T17:40:58.321Z,3.13
2018-04-17T17:43:24.224Z,3.13
2018-04-17T17:45:50.088Z,3.07
2018-04-17T17:48:15.992Z,3.30
2018-04-17T17:50:41.883Z,3.23
2018-04-17T17:53:08.016Z,3.37
2018-04-17T17:55:33.975Z,4.37
2018-04-17T17:57:59.849Z,3.37
2018-04-17T18:00:25.745Z,2.90
2018-04-17T18:02:52.056Z,3.30
2018-04-17T18:05:18.054Z,3.80
2018-04-17T18:07:43.952Z,4.30
2018-04-17T18:10:13.535Z,4.00
2018-04-17T18:12:39.411Z,4.40
2018-04-17T18:15:05.275Z,4.23
2018-04-17T18:17:31.283Z,4.43
2018-04-17T18:19:57.144Z,4.37
2018-04-17T18:22:23.008Z,4.07
2018-04-17T18:24:48.927Z,4.10
2018-04-17T18:27:14.798Z,4.33
2018-04-17T18:29:40.772Z,4.43
2018-04-17T18:32:06.699Z,4.07
2018-04-17T18:34:32.574Z,4.10
2018-04-17T18:36:58.505Z,4.43
2018-04-17T18:39:24.451Z,4.07
2018-04-17T18:41:50.455Z,4.13
2018-04-17T18:44:16.328Z,3.70
2018-04-17T18:46:42.236Z,4.43
2018-04-17T18:49:08.144Z,3.73
2018-04-17T18:51:34.009Z,4.23
2018-04-17T18:54:00.175Z,3.40
2018-04-17T18:56:26.039Z,4.07
2018-04-17T18:58:51.916Z,4.30
2018-04-17T19:01:17.992Z,4.17
2018-04-17T19:03:43.886Z,4.30
2018-04-17T19:06:09.855Z,4.23
2018-04-17T19:08:35.800Z,4.30
2018-04-17T19:11:01.677Z,4.57
2018-04-17T19:13:28.592Z,4.70
2018-04-17T19:15:54.482Z,5.57
2018-04-17T19:18:20.485Z,6.10
2018-04-17T19:20:46.353Z,5.43
2018-04-17T19:23:12.296Z,6.50
2018-04-17T19:25:38.251Z,5.27
2018-04-17T19:28:04.136Z,5.77
2018-04-17T19:30:30.179Z,5.73
2018-04-17T19:32:56.081Z,5.70
2018-04-17T19:35:21.964Z,6.00
2018-04-17T19:37:48.356Z,6.10
2018-04-17T19:40:14.269Z,6.77
2018-04-17T19:42:40.283Z,6.67
2018-04-17T19:45:06.188Z,7.23
2018-04-17T19:47:32.083Z,7.03
2018-04-17T19:49:57.956Z,7.50
2018-04-17T19:52:23.899Z,7.03
2018-04-17T19:54:49.977Z,6.70
2018-04-17T19:57:15.843Z,7.20
2018-04-17T19:59:41.749Z,6.80
2018-04-17T20:02:07.627Z,6.70
2018-04-17T20:04:33.505Z,6.60
2018-04-17T20:06:59.892Z,5.93
2018-04-17T20:09:26.005Z,6.53
2018-04-17T20:11:51.868Z,5.87
2018-04-17T20:14:17.783Z,6.20
2018-04-17T20:16:43.644Z,6.40
2018-04-17T20:19:09.604Z,5.93
2018-04-17T20:21:35.520Z,6.17
2018-04-17T20:24:03.502Z,5.97
2018-04-17T20:26:29.744Z,6.43
2018-04-17T20:28:55.700Z,7.33
2018-04-17T20:31:21.650Z,6.83
2018-04-17T20:33:47.555Z,7.70
2018-04-17T20:36:13.477Z,7.17
2018-04-17T20:38:39.383Z,6.30
2018-04-17T20:41:05.259Z,7.63
2018-04-17T20:43:31.300Z,7.20
2018-04-17T20:45:57.174Z,9.43
2018-04-17T20:48:23.033Z,8.80
2018-04-17T20:50:48.971Z,7.90
2018-04-17T20:53:14.870Z,8.80
2018-04-17T20:55:40.839Z,8.20
2018-04-17T20:58:06.778Z,7.97
2018-04-17T21:00:32.770Z,9.93
2018-04-17T21:02:58.631Z,9.83
2018-04-17T21:05:24.553Z,10.23
2018-04-17T21:07:50.550Z,10.70
2018-04-17T21:10:16.435Z,9.73
2018-04-17T21:12:42.698Z,10.07
2018-04-17T21:15:08.581Z,9.37
2018-04-17T21:17:34.468Z,9.87
2018-04-17T21:20:00.472Z,9.83
2018-04-17T21:22:26.367Z,10.17
2018-04-17T21:24:52.308Z,9.20
2018-04-17T21:27:18.221Z,9.87
2018-04-17T21:29:44.674Z,10.30
2018-04-17T21:32:10.621Z,9.53
2018-04-17T21:34:36.535Z,10.20
2018-04-17T21:37:02.465Z,10.40
2018-04-17T21:39:28.373Z,11.00
2018-04-17T21:41:54.306Z,9.50
2018-04-17T21:44:20.340Z,10.83
2018-04-17T21:46:46.245Z,10.17
2018-04-17T21:49:12.230Z,11.20
2018-04-17T21:51:38.095Z,11.20
2018-04-17T21:54:03.970Z,11.93
2018-04-17T21:56:29.968Z,11.20
2018-04-17T21:58:55.863Z,10.63
2018-04-17T22:01:27.788Z,10.57
2018-04-17T22:03:53.697Z,10.80
2018-04-17T22:06:19.571Z,11.77
2018-04-17T22:08:45.544Z,11.80
2018-04-17T22:11:11.467Z,10.93
2018-04-17T22:13:37.456Z,12.37
2018-04-17T22:16:03.720Z,11.03
2018-04-17T22:18:30.134Z,11.47
2018-04-17T22:20:56.976Z,10.43
2018-04-17T22:23:23.333Z,10.63
2018-04-17T22:25:49.738Z,10.03
2018-04-17T22:28:15.656Z,11.17
2018-04-17T22:30:42.100Z,10.33
2018-04-17T22:33:08.495Z,10.70
2018-04-17T22:35:34.762Z,10.10
2018-04-17T22:38:00.855Z,10.73
2018-04-17T22:40:27.429Z,10.97
2018-04-17T22:42:53.829Z,10.67
2018-04-17T22:45:19.833Z,11.27
2018-04-17T22:47:46.668Z,11.23
2018-04-17T22:50:13.064Z,10.57
2018-04-17T22:52:39.485Z,10.90
2018-04-17T22:55:05.490Z,10.50
2018-04-17T22:57:31.901Z,11.97
2018-04-17T22:59:57.853Z,10.43
2018-04-17T23:02:24.088Z,10.83
2018-04-17T23:04:50.497Z,10.33
2018-04-17T23:07:16.856Z,11.47
2018-04-17T23:09:43.024Z,11.07
2018-04-17T23:12:08.915Z,10.43
2018-04-17T23:14:34.912Z,10.93
2018-04-17T23:17:00.775Z,11.30
2018-04-17T23:19:26.644Z,10.90
2018-04-17T23:21:52.602Z,11.43
2018-04-17T23:24:18.504Z,10.73
2018-04-17T23:26:44.429Z,10.73
2018-04-17T23:29:10.302Z,10.57
2018-04-17T23:31:36.210Z,11.60
2018-04-17T23:34:02.200Z,11.20
2018-04-17T23:36:28.066Z,11.53
2018-04-17T23:38:54.022Z,11.20
2018-04-17T23:41:19.897Z,11.10
2018-04-17T23:43:45.773Z,10.90
2018-04-17T23:46:11.870Z,11.47
2018-04-17T23:48:37.744Z,11.73
2018-04-17T23:51:03.663Z,11.90
2018-04-17T23:53:29.592Z,12.30
2018-04-17T23:55:55.540Z,11.20
2018-04-17T23:58:21.551Z,11.27
